Grimsby, United Kingdom
Current Conditions -  °F | °C
As of 1:20 AM on Saturday 22 Nov 2014 (Local Time) from EGNJ Reporting Station
Drizzle Drizzle  
Wind Chill: 44°   Ceiling: 800
Heat Index: 48°   Visibility: 2.3mi
Dew Point: 46°   Wind: 9mph
Humidity: 93%   Direction: 130°SE
Pressure: 29.88"   Gusts: NA
Location:  53.57°N, 0.08°W
Report Text: EGNJ 220120Z AUTO 13008KT 3800 DZ OVC008/// 09/08 Q1012 RERA
Loading
Personal Weather Stations






























Interactive Weather Map New forecast layout! Learn more

10-Day Weather Forecast

Advertisements
Track Severe Weather on mobile